Brantwood, Wisconsin
Current Conditions -  °F | °C
As of 11:15 AM on Saturday 25 Oct 2014 (Local Time) from KPBH Reporting Station
Clear Clear  
Wind Chill: 53°   Ceiling: Unl
Heat Index: 53°   Visibility: 10mi
Dew Point: 31°   Wind: 14mph
Humidity: 43%   Direction: 320°NW
Pressure: 29.9"   Gusts: 26mph
Location:  45.56°N, 90.12°W
Report Text: KPBH 251615Z AUTO 32012G23KT 10SM CLR 12/00 A2990 RMK AO2 T01191003
Loading
Personal Weather Stations






























Interactive Weather Map
Tropical Storm Tracking
New forecast layout! Learn more

10-Day Weather Forecast

Advertisements
Track Severe Weather on mobile